sensor_id;sensor_type;location;lat;lon;timestamp;P1;durP1;ratioP1;P2;durP2;ratioP2
10442;SDS011;5269;51.146;16.986;2022-07-04T00:00:05;5.72;;;5.15;;
10442;SDS011;5269;51.146;16.986;2022-07-04T00:02:34;6.35;;;5.13;;
10442;SDS011;5269;51.146;16.986;2022-07-04T00:05:03;6.38;;;5.10;;
10442;SDS011;5269;51.146;16.986;2022-07-04T00:07:34;5.75;;;5.25;;
10442;SDS011;5269;51.146;16.986;2022-07-04T00:10:01;5.68;;;5.15;;
10442;SDS011;5269;51.146;16.986;2022-07-04T00:12:28;5.78;;;5.22;;
10442;SDS011;5269;51.146;16.986;2022-07-04T00:14:58;7.80;;;4.82;;
10442;SDS011;5269;51.146;16.986;2022-07-04T00:17:25;6.00;;;5.40;;
10442;SDS011;5269;51.146;16.986;2022-07-04T00:19:52;6.05;;;5.45;;
10442;SDS011;5269;51.146;16.986;2022-07-04T00:22:25;8.48;;;5.13;;
10442;SDS011;5269;51.146;16.986;2022-07-04T00:24:55;6.18;;;5.53;;
10442;SDS011;5269;51.146;16.986;2022-07-04T00:27:22;6.00;;;5.50;;
10442;SDS011;5269;51.146;16.986;2022-07-04T00:29:53;5.82;;;5.32;;
10442;SDS011;5269;51.146;16.986;2022-07-04T00:32:20;6.22;;;5.60;;
10442;SDS011;5269;51.146;16.986;2022-07-04T00:34:47;5.85;;;5.35;;
10442;SDS011;5269;51.146;16.986;2022-07-04T00:37:14;6.00;;;5.40;;
10442;SDS011;5269;51.146;16.986;2022-07-04T00:39:42;5.90;;;5.32;;
10442;SDS011;5269;51.146;16.986;2022-07-04T00:42:09;5.97;;;5.38;;
10442;SDS011;5269;51.146;16.986;2022-07-04T00:44:36;5.82;;;5.10;;
10442;SDS011;5269;51.146;16.986;2022-07-04T00:47:04;6.00;;;5.40;;
10442;SDS011;5269;51.146;16.986;2022-07-04T00:49:32;6.18;;;5.13;;
10442;SDS011;5269;51.146;16.986;2022-07-04T00:51:59;8.00;;;5.72;;
10442;SDS011;5269;51.146;16.986;2022-07-04T00:54:28;8.00;;;6.18;;
10442;SDS011;5269;51.146;16.986;2022-07-04T00:56:58;8.77;;;6.28;;
10442;SDS011;5269;51.146;16.986;2022-07-04T00:59:26;6.60;;;5.90;;
10442;SDS011;5269;51.146;16.986;2022-07-04T01:01:53;7.28;;;6.43;;
10442;SDS011;5269;51.146;16.986;2022-07-04T01:04:21;9.25;;;6.28;;
10442;SDS011;5269;51.146;16.986;2022-07-04T01:06:49;7.07;;;6.47;;
10442;SDS011;5269;51.146;16.986;2022-07-04T01:09:16;9.50;;;6.53;;
10442;SDS011;5269;51.146;16.986;2022-07-04T01:11:43;8.55;;;6.47;;
10442;SDS011;5269;51.146;16.986;2022-07-04T01:14:11;7.20;;;6.50;;
10442;SDS011;5269;51.146;16.986;2022-07-04T01:16:38;9.35;;;6.07;;
10442;SDS011;5269;51.146;16.986;2022-07-04T01:19:05;7.00;;;6.30;;
10442;SDS011;5269;51.146;16.986;2022-07-04T01:21:33;7.22;;;6.47;;
10442;SDS011;5269;51.146;16.986;2022-07-04T01:24:00;7.35;;;6.65;;
10442;SDS011;5269;51.146;16.986;2022-07-04T01:26:28;9.27;;;6.72;;
10442;SDS011;5269;51.146;16.986;2022-07-04T01:28:55;7.50;;;6.72;;
10442;SDS011;5269;51.146;16.986;2022-07-04T01:31:22;9.23;;;7.10;;
10442;SDS011;5269;51.146;16.986;2022-07-04T01:33:49;8.02;;;6.85;;
10442;SDS011;5269;51.146;16.986;2022-07-04T01:36:16;6.68;;;6.07;;
10442;SDS011;5269;51.146;16.986;2022-07-04T01:38:44;7.97;;;7.22;;
10442;SDS011;5269;51.146;16.986;2022-07-04T01:41:11;7.95;;;7.20;;
10442;SDS011;5269;51.146;16.986;2022-07-04T01:43:38;7.93;;;7.15;;
10442;SDS011;5269;51.146;16.986;2022-07-04T01:46:05;7.97;;;7.05;;
10442;SDS011;5269;51.146;16.986;2022-07-04T01:48:32;7.95;;;7.15;;
10442;SDS011;5269;51.146;16.986;2022-07-04T01:50:59;8.98;;;7.57;;
10442;SDS011;5269;51.146;16.986;2022-07-04T01:53:26;8.77;;;7.88;;
10442;SDS011;5269;51.146;16.986;2022-07-04T01:55:54;9.48;;;8.50;;
10442;SDS011;5269;51.146;16.986;2022-07-04T01:58:21;8.63;;;7.82;;
10442;SDS011;5269;51.146;16.986;2022-07-04T02:00:48;9.27;;;8.00;;
10442;SDS011;5269;51.146;16.986;2022-07-04T02:03:29;10.10;;;8.98;;
10442;SDS011;5269;51.146;16.986;2022-07-04T02:05:56;12.70;;;8.85;;
10442;SDS011;5269;51.146;16.986;2022-07-04T02:08:22;9.00;;;8.13;;
10442;SDS011;5269;51.146;16.986;2022-07-04T02:11:11;9.00;;;8.10;;
10442;SDS011;5269;51.146;16.986;2022-07-04T02:13:38;9.48;;;8.57;;
10442;SDS011;5269;51.146;16.986;2022-07-04T02:16:04;9.50;;;8.52;;
10442;SDS011;5269;51.146;16.986;2022-07-04T02:18:32;9.80;;;8.57;;
10442;SDS011;5269;51.146;16.986;2022-07-04T02:20:59;11.40;;;9.43;;
10442;SDS011;5269;51.146;16.986;2022-07-04T02:23:26;10.00;;;8.10;;
10442;SDS011;5269;51.146;16.986;2022-07-04T02:25:53;9.27;;;8.38;;
10442;SDS011;5269;51.146;16.986;2022-07-04T02:28:23;10.38;;;8.27;;
10442;SDS011;5269;51.146;16.986;2022-07-04T02:30:50;8.82;;;8.00;;
10442;SDS011;5269;51.146;16.986;2022-07-04T02:33:17;11.80;;;8.23;;
10442;SDS011;5269;51.146;16.986;2022-07-04T02:35:44;9.43;;;8.43;;
10442;SDS011;5269;51.146;16.986;2022-07-04T02:38:11;9.35;;;8.48;;
10442;SDS011;5269;51.146;16.986;2022-07-04T02:40:41;8.80;;;8.05;;
10442;SDS011;5269;51.146;16.986;2022-07-04T02:43:08;9.27;;;8.38;;
10442;SDS011;5269;51.146;16.986;2022-07-04T02:45:36;8.77;;;7.97;;
10442;SDS011;5269;51.146;16.986;2022-07-04T02:48:03;10.20;;;8.32;;
10442;SDS011;5269;51.146;16.986;2022-07-04T02:50:30;10.60;;;8.73;;
10442;SDS011;5269;51.146;16.986;2022-07-04T02:52:57;8.90;;;8.10;;
10442;SDS011;5269;51.146;16.986;2022-07-04T02:55:24;8.98;;;8.15;;
10442;SDS011;5269;51.146;16.986;2022-07-04T02:57:51;9.05;;;8.20;;
10442;SDS011;5269;51.146;16.986;2022-07-04T03:00:18;9.15;;;8.10;;
10442;SDS011;5269;51.146;16.986;2022-07-04T03:02:46;8.20;;;7.53;;
10442;SDS011;5269;51.146;16.986;2022-07-04T03:05:13;9.18;;;8.38;;
10442;SDS011;5269;51.146;16.986;2022-07-04T03:07:40;9.45;;;8.23;;
10442;SDS011;5269;51.146;16.986;2022-07-04T03:10:08;8.65;;;7.75;;
10442;SDS011;5269;51.146;16.986;2022-07-04T03:12:35;8.45;;;7.68;;
10442;SDS011;5269;51.146;16.986;2022-07-04T03:15:02;10.15;;;7.50;;
10442;SDS011;5269;51.146;16.986;2022-07-04T03:17:30;8.00;;;7.20;;
10442;SDS011;5269;51.146;16.986;2022-07-04T03:19:58;8.90;;;8.10;;
10442;SDS011;5269;51.146;16.986;2022-07-04T03:22:25;7.95;;;7.25;;
10442;SDS011;5269;51.146;16.986;2022-07-04T03:24:52;8.70;;;7.88;;
10442;SDS011;5269;51.146;16.986;2022-07-04T03:27:20;9.15;;;8.25;;
10442;SDS011;5269;51.146;16.986;2022-07-04T03:29:47;8.95;;;7.53;;
10442;SDS011;5269;51.146;16.986;2022-07-04T03:32:14;9.30;;;7.90;;
10442;SDS011;5269;51.146;16.986;2022-07-04T03:34:41;8.95;;;8.05;;
10442;SDS011;5269;51.146;16.986;2022-07-04T03:37:09;9.50;;;7.97;;
10442;SDS011;5269;51.146;16.986;2022-07-04T03:39:38;9.60;;;8.70;;
10442;SDS011;5269;51.146;16.986;2022-07-04T03:42:05;10.20;;;8.50;;
10442;SDS011;5269;51.146;16.986;2022-07-04T03:44:32;9.45;;;8.20;;
10442;SDS011;5269;51.146;16.986;2022-07-04T03:47:01;8.57;;;7.75;;
10442;SDS011;5269;51.146;16.986;2022-07-04T03:49:28;9.80;;;8.38;;
10442;SDS011;5269;51.146;16.986;2022-07-04T03:51:55;10.18;;;8.38;;
10442;SDS011;5269;51.146;16.986;2022-07-04T03:54:23;9.57;;;8.57;;
10442;SDS011;5269;51.146;16.986;2022-07-04T03:56:53;9.45;;;8.50;;
10442;SDS011;5269;51.146;16.986;2022-07-04T03:59:20;8.10;;;7.40;;
10442;SDS011;5269;51.146;16.986;2022-07-04T04:01:48;10.40;;;8.45;;
10442;SDS011;5269;51.146;16.986;2022-07-04T04:04:15;9.68;;;8.50;;
10442;SDS011;5269;51.146;16.986;2022-07-04T04:10:23;8.77;;;7.97;;
10442;SDS011;5269;51.146;16.986;2022-07-04T04:16:12;9.85;;;8.73;;
10442;SDS011;5269;51.146;16.986;2022-07-04T04:35:08;9.13;;;8.23;;
10442;SDS011;5269;51.146;16.986;2022-07-04T04:37:37;11.07;;;7.20;;
10442;SDS011;5269;51.146;16.986;2022-07-04T04:40:05;7.97;;;6.93;;
10442;SDS011;5269;51.146;16.986;2022-07-04T04:45:37;8.15;;;7.15;;
10442;SDS011;5269;51.146;16.986;2022-07-04T04:48:05;7.28;;;6.68;;
10442;SDS011;5269;51.146;16.986;2022-07-04T04:50:34;8.77;;;6.47;;
10442;SDS011;5269;51.146;16.986;2022-07-04T04:53:05;10.20;;;7.07;;
10442;SDS011;5269;51.146;16.986;2022-07-04T04:55:32;6.90;;;5.90;;
10442;SDS011;5269;51.146;16.986;2022-07-04T04:57:59;6.65;;;5.95;;
10442;SDS011;5269;51.146;16.986;2022-07-04T05:00:26;6.68;;;5.60;;
10442;SDS011;5269;51.146;16.986;2022-07-04T05:02:53;6.60;;;5.30;;
10442;SDS011;5269;51.146;16.986;2022-07-04T05:05:20;7.10;;;5.30;;
10442;SDS011;5269;51.146;16.986;2022-07-04T05:07:49;8.90;;;5.05;;
10442;SDS011;5269;51.146;16.986;2022-07-04T05:10:16;8.88;;;5.32;;
10442;SDS011;5269;51.146;16.986;2022-07-04T05:12:46;7.45;;;5.65;;
10442;SDS011;5269;51.146;16.986;2022-07-04T05:15:13;6.57;;;5.43;;
10442;SDS011;5269;51.146;16.986;2022-07-04T05:17:40;10.88;;;5.60;;
10442;SDS011;5269;51.146;16.986;2022-07-04T05:20:07;5.60;;;5.10;;
10442;SDS011;5269;51.146;16.986;2022-07-04T05:22:35;7.70;;;5.35;;
10442;SDS011;5269;51.146;16.986;2022-07-04T05:25:07;9.32;;;5.15;;
10442;SDS011;5269;51.146;16.986;2022-07-04T05:30:21;6.32;;;4.82;;
10442;SDS011;5269;51.146;16.986;2022-07-04T05:32:50;6.53;;;4.95;;
10442;SDS011;5269;51.146;16.986;2022-07-04T05:35:18;7.40;;;4.78;;
10442;SDS011;5269;51.146;16.986;2022-07-04T05:37:50;6.65;;;4.22;;
10442;SDS011;5269;51.146;16.986;2022-07-04T05:40:19;5.13;;;4.18;;
10442;SDS011;5269;51.146;16.986;2022-07-04T05:42:55;4.53;;;3.90;;
10442;SDS011;5269;51.146;16.986;2022-07-04T05:45:25;4.50;;;4.10;;
10442;SDS011;5269;51.146;16.986;2022-07-04T05:47:57;4.65;;;4.22;;
10442;SDS011;5269;51.146;16.986;2022-07-04T05:50:24;6.28;;;4.13;;
10442;SDS011;5269;51.146;16.986;2022-07-04T05:52:52;5.57;;;3.80;;
10442;SDS011;5269;51.146;16.986;2022-07-04T05:55:20;6.13;;;3.80;;
10442;SDS011;5269;51.146;16.986;2022-07-04T05:57:48;3.65;;;3.33;;
10442;SDS011;5269;51.146;16.986;2022-07-04T06:00:15;4.60;;;3.30;;
10442;SDS011;5269;51.146;16.986;2022-07-04T06:02:43;3.72;;;3.42;;
10442;SDS011;5269;51.146;16.986;2022-07-04T06:05:10;6.38;;;3.20;;
10442;SDS011;5269;51.146;16.986;2022-07-04T06:07:37;3.90;;;3.13;;
10442;SDS011;5269;51.146;16.986;2022-07-04T06:10:08;4.40;;;3.03;;
10442;SDS011;5269;51.146;16.986;2022-07-04T06:12:37;5.78;;;3.47;;
10442;SDS011;5269;51.146;16.986;2022-07-04T06:15:05;4.20;;;3.25;;
10442;SDS011;5269;51.146;16.986;2022-07-04T06:17:43;3.97;;;3.40;;
10442;SDS011;5269;51.146;16.986;2022-07-04T06:20:13;8.80;;;3.40;;
10442;SDS011;5269;51.146;16.986;2022-07-04T06:22:43;7.00;;;3.30;;
10442;SDS011;5269;51.146;16.986;2022-07-04T06:25:12;4.35;;;3.67;;
10442;SDS011;5269;51.146;16.986;2022-07-04T06:27:45;7.57;;;3.28;;
10442;SDS011;5269;51.146;16.986;2022-07-04T06:32:50;7.78;;;3.38;;
10442;SDS011;5269;51.146;16.986;2022-07-04T06:35:20;8.10;;;3.40;;
10442;SDS011;5269;51.146;16.986;2022-07-04T06:38:05;6.70;;;3.33;;
10442;SDS011;5269;51.146;16.986;2022-07-04T06:40:36;9.55;;;3.35;;
10442;SDS011;5269;51.146;16.986;2022-07-04T06:43:05;8.73;;;3.58;;
10442;SDS011;5269;51.146;16.986;2022-07-04T06:45:35;7.97;;;3.22;;
10442;SDS011;5269;51.146;16.986;2022-07-04T06:48:03;6.72;;;3.30;;
10442;SDS011;5269;51.146;16.986;2022-07-04T06:50:31;6.30;;;3.30;;
10442;SDS011;5269;51.146;16.986;2022-07-04T07:02:46;6.15;;;3.03;;
10442;SDS011;5269;51.146;16.986;2022-07-04T07:05:13;6.32;;;3.47;;
10442;SDS011;5269;51.146;16.986;2022-07-04T07:07:40;5.32;;;3.17;;
10442;SDS011;5269;51.146;16.986;2022-07-04T07:10:08;10.25;;;3.78;;
10442;SDS011;5269;51.146;16.986;2022-07-04T07:12:35;5.25;;;3.65;;
10442;SDS011;5269;51.146;16.986;2022-07-04T07:15:22;11.93;;;4.13;;
10442;SDS011;5269;51.146;16.986;2022-07-04T07:17:49;6.15;;;3.30;;
10442;SDS011;5269;51.146;16.986;2022-07-04T07:20:16;7.32;;;3.80;;
10442;SDS011;5269;51.146;16.986;2022-07-04T07:22:43;4.70;;;3.22;;
10442;SDS011;5269;51.146;16.986;2022-07-04T07:25:10;9.43;;;3.72;;
10442;SDS011;5269;51.146;16.986;2022-07-04T07:27:37;6.93;;;3.30;;
10442;SDS011;5269;51.146;16.986;2022-07-04T07:30:06;4.30;;;3.50;;
10442;SDS011;5269;51.146;16.986;2022-07-04T07:32:36;4.57;;;3.80;;
10442;SDS011;5269;51.146;16.986;2022-07-04T07:35:03;4.53;;;3.20;;
10442;SDS011;5269;51.146;16.986;2022-07-04T07:37:31;4.50;;;4.10;;
10442;SDS011;5269;51.146;16.986;2022-07-04T07:39:58;3.92;;;3.50;;
10442;SDS011;5269;51.146;16.986;2022-07-04T07:42:25;6.38;;;4.10;;
10442;SDS011;5269;51.146;16.986;2022-07-04T07:44:52;9.20;;;4.35;;
10442;SDS011;5269;51.146;16.986;2022-07-04T07:47:19;5.55;;;4.00;;
10442;SDS011;5269;51.146;16.986;2022-07-04T07:49:53;4.97;;;3.90;;
10442;SDS011;5269;51.146;16.986;2022-07-04T07:52:26;4.03;;;3.40;;
10442;SDS011;5269;51.146;16.986;2022-07-04T07:54:53;4.88;;;3.58;;
10442;SDS011;5269;51.146;16.986;2022-07-04T07:57:21;4.63;;;4.15;;
10442;SDS011;5269;51.146;16.986;2022-07-04T07:59:48;5.72;;;3.60;;
10442;SDS011;5269;51.146;16.986;2022-07-04T08:02:18;4.50;;;3.88;;
10442;SDS011;5269;51.146;16.986;2022-07-04T08:04:45;5.40;;;3.67;;
10442;SDS011;5269;51.146;16.986;2022-07-04T08:10:34;3.92;;;3.20;;
10442;SDS011;5269;51.146;16.986;2022-07-04T08:16:22;7.32;;;4.05;;
10442;SDS011;5269;51.146;16.986;2022-07-04T08:22:11;4.60;;;3.17;;
10442;SDS011;5269;51.146;16.986;2022-07-04T08:27:37;5.82;;;3.65;;
10442;SDS011;5269;51.146;16.986;2022-07-04T08:30:09;4.03;;;3.65;;
10442;SDS011;5269;51.146;16.986;2022-07-04T08:32:36;8.40;;;3.75;;
10442;SDS011;5269;51.146;16.986;2022-07-04T08:35:04;5.13;;;4.38;;
10442;SDS011;5269;51.146;16.986;2022-07-04T08:37:34;6.63;;;4.05;;
10442;SDS011;5269;51.146;16.986;2022-07-04T08:40:02;3.78;;;3.25;;
10442;SDS011;5269;51.146;16.986;2022-07-04T08:42:35;6.60;;;4.03;;
10442;SDS011;5269;51.146;16.986;2022-07-04T08:45:04;7.25;;;3.67;;
10442;SDS011;5269;51.146;16.986;2022-07-04T08:47:33;6.93;;;3.50;;
10442;SDS011;5269;51.146;16.986;2022-07-04T08:50:05;5.97;;;3.58;;
10442;SDS011;5269;51.146;16.986;2022-07-04T08:52:37;7.22;;;3.72;;
10442;SDS011;5269;51.146;16.986;2022-07-04T08:55:05;4.63;;;3.67;;
10442;SDS011;5269;51.146;16.986;2022-07-04T08:57:56;6.00;;;4.20;;
10442;SDS011;5269;51.146;16.986;2022-07-04T09:00:42;8.25;;;4.57;;
10442;SDS011;5269;51.146;16.986;2022-07-04T09:06:33;6.90;;;4.55;;
10442;SDS011;5269;51.146;16.986;2022-07-04T09:12:22;7.72;;;4.20;;
10442;SDS011;5269;51.146;16.986;2022-07-04T09:14:50;5.45;;;4.60;;
10442;SDS011;5269;51.146;16.986;2022-07-04T09:17:25;7.72;;;4.30;;
10442;SDS011;5269;51.146;16.986;2022-07-04T09:23:18;5.05;;;4.15;;
10442;SDS011;5269;51.146;16.986;2022-07-04T09:26:05;4.90;;;4.40;;
10442;SDS011;5269;51.146;16.986;2022-07-04T09:32:08;11.10;;;4.40;;
10442;SDS011;5269;51.146;16.986;2022-07-04T09:34:39;10.18;;;4.20;;
10442;SDS011;5269;51.146;16.986;2022-07-04T09:40:42;5.00;;;4.47;;
10442;SDS011;5269;51.146;16.986;2022-07-04T09:46:48;5.07;;;4.57;;
10442;SDS011;5269;51.146;16.986;2022-07-04T09:49:18;6.65;;;4.78;;
10442;SDS011;5269;51.146;16.986;2022-07-04T09:51:46;5.50;;;5.00;;
10442;SDS011;5269;51.146;16.986;2022-07-04T09:54:15;5.88;;;4.90;;
10442;SDS011;5269;51.146;16.986;2022-07-04T09:56:47;6.28;;;4.65;;
10442;SDS011;5269;51.146;16.986;2022-07-04T09:59:16;7.85;;;5.03;;
10442;SDS011;5269;51.146;16.986;2022-07-04T10:01:43;5.18;;;4.70;;
10442;SDS011;5269;51.146;16.986;2022-07-04T10:04:10;6.38;;;5.07;;
10442;SDS011;5269;51.146;16.986;2022-07-04T10:06:40;9.35;;;5.13;;
10442;SDS011;5269;51.146;16.986;2022-07-04T10:09:10;6.93;;;4.72;;
10442;SDS011;5269;51.146;16.986;2022-07-04T10:11:41;7.10;;;5.28;;
10442;SDS011;5269;51.146;16.986;2022-07-04T10:14:15;7.07;;;5.10;;
10442;SDS011;5269;51.146;16.986;2022-07-04T10:16:43;5.25;;;4.75;;
10442;SDS011;5269;51.146;16.986;2022-07-04T10:19:12;7.53;;;4.93;;
10442;SDS011;5269;51.146;16.986;2022-07-04T10:21:41;9.60;;;4.78;;
10442;SDS011;5269;51.146;16.986;2022-07-04T10:24:13;7.28;;;5.22;;
10442;SDS011;5269;51.146;16.986;2022-07-04T10:26:41;9.30;;;5.05;;
10442;SDS011;5269;51.146;16.986;2022-07-04T10:29:12;5.38;;;4.97;;
10442;SDS011;5269;51.146;16.986;2022-07-04T10:31:44;6.13;;;4.78;;
10442;SDS011;5269;51.146;16.986;2022-07-04T10:34:11;5.40;;;4.85;;
10442;SDS011;5269;51.146;16.986;2022-07-04T10:36:38;5.13;;;4.57;;
10442;SDS011;5269;51.146;16.986;2022-07-04T10:39:06;7.68;;;5.20;;
10442;SDS011;5269;51.146;16.986;2022-07-04T10:41:33;7.65;;;5.22;;
10442;SDS011;5269;51.146;16.986;2022-07-04T10:44:01;5.20;;;4.70;;
10442;SDS011;5269;51.146;16.986;2022-07-04T10:46:35;5.95;;;5.18;;
10442;SDS011;5269;51.146;16.986;2022-07-04T10:49:17;8.27;;;5.13;;
10442;SDS011;5269;51.146;16.986;2022-07-04T10:51:50;8.30;;;5.22;;
10442;SDS011;5269;51.146;16.986;2022-07-04T10:54:22;6.60;;;5.10;;
10442;SDS011;5269;51.146;16.986;2022-07-04T10:59:31;5.20;;;4.70;;
10442;SDS011;5269;51.146;16.986;2022-07-04T11:10:58;9.32;;;4.80;;
10442;SDS011;5269;51.146;16.986;2022-07-04T11:13:47;11.80;;;4.90;;
10442;SDS011;5269;51.146;16.986;2022-07-04T11:43:33;5.15;;;4.13;;
10442;SDS011;5269;51.146;16.986;2022-07-04T11:46:17;5.38;;;4.10;;
10442;SDS011;5269;51.146;16.986;2022-07-04T11:48:44;5.40;;;4.55;;
10442;SDS011;5269;51.146;16.986;2022-07-04T11:51:16;4.70;;;4.30;;
10442;SDS011;5269;51.146;16.986;2022-07-04T11:53:44;4.55;;;4.10;;
10442;SDS011;5269;51.146;16.986;2022-07-04T11:56:15;4.20;;;3.88;;
10442;SDS011;5269;51.146;16.986;2022-07-04T11:58:45;5.40;;;3.90;;
10442;SDS011;5269;51.146;16.986;2022-07-04T12:01:12;4.25;;;3.85;;
10442;SDS011;5269;51.146;16.986;2022-07-04T12:04:10;4.45;;;3.90;;
10442;SDS011;5269;51.146;16.986;2022-07-04T12:06:44;4.35;;;4.00;;
10442;SDS011;5269;51.146;16.986;2022-07-04T12:09:17;4.03;;;3.58;;
10442;SDS011;5269;51.146;16.986;2022-07-04T12:11:56;6.65;;;3.70;;
10442;SDS011;5269;51.146;16.986;2022-07-04T12:14:30;3.60;;;3.40;;
10442;SDS011;5269;51.146;16.986;2022-07-04T12:17:13;4.00;;;3.42;;
10442;SDS011;5269;51.146;16.986;2022-07-04T12:19:54;4.53;;;3.10;;
10442;SDS011;5269;51.146;16.986;2022-07-04T12:22:26;3.30;;;3.03;;
10442;SDS011;5269;51.146;16.986;2022-07-04T12:25:03;4.40;;;3.70;;
10442;SDS011;5269;51.146;16.986;2022-07-04T12:27:33;3.22;;;3.03;;
10442;SDS011;5269;51.146;16.986;2022-07-04T12:30:03;4.10;;;3.10;;
10442;SDS011;5269;51.146;16.986;2022-07-04T12:32:43;2.80;;;2.60;;
10442;SDS011;5269;51.146;16.986;2022-07-04T12:35:34;3.85;;;3.25;;
10442;SDS011;5269;51.146;16.986;2022-07-04T12:38:07;3.50;;;3.20;;
10442;SDS011;5269;51.146;16.986;2022-07-04T12:40:35;6.68;;;3.25;;
10442;SDS011;5269;51.146;16.986;2022-07-04T12:43:06;3.58;;;3.38;;
10442;SDS011;5269;51.146;16.986;2022-07-04T12:45:42;4.30;;;3.70;;
10442;SDS011;5269;51.146;16.986;2022-07-04T12:48:15;3.80;;;3.42;;
10442;SDS011;5269;51.146;16.986;2022-07-04T12:50:47;3.67;;;3.38;;
10442;SDS011;5269;51.146;16.986;2022-07-04T12:53:44;5.85;;;2.78;;
10442;SDS011;5269;51.146;16.986;2022-07-04T12:56:26;3.30;;;2.95;;
10442;SDS011;5269;51.146;16.986;2022-07-04T12:58:56;3.40;;;2.90;;
10442;SDS011;5269;51.146;16.986;2022-07-04T13:01:27;2.85;;;2.65;;
10442;SDS011;5269;51.146;16.986;2022-07-04T13:03:55;3.05;;;2.85;;
10442;SDS011;5269;51.146;16.986;2022-07-04T13:06:23;3.22;;;2.70;;
10442;SDS011;5269;51.146;16.986;2022-07-04T13:08:50;4.20;;;3.00;;
10442;SDS011;5269;51.146;16.986;2022-07-04T13:11:18;3.72;;;3.40;;
10442;SDS011;5269;51.146;16.986;2022-07-04T13:14:02;3.42;;;3.10;;
10442;SDS011;5269;51.146;16.986;2022-07-04T13:27:52;4.07;;;3.20;;
10442;SDS011;5269;51.146;16.986;2022-07-04T13:30:23;4.57;;;3.00;;
10442;SDS011;5269;51.146;16.986;2022-07-04T13:32:53;3.47;;;3.25;;
10442;SDS011;5269;51.146;16.986;2022-07-04T13:35:28;3.50;;;3.30;;
10442;SDS011;5269;51.146;16.986;2022-07-04T13:37:55;4.28;;;3.35;;
10442;SDS011;5269;51.146;16.986;2022-07-04T13:40:24;3.25;;;3.00;;
10442;SDS011;5269;51.146;16.986;2022-07-04T13:42:52;3.70;;;3.40;;
10442;SDS011;5269;51.146;16.986;2022-07-04T13:45:25;7.30;;;3.40;;
10442;SDS011;5269;51.146;16.986;2022-07-04T13:47:53;3.38;;;3.17;;
10442;SDS011;5269;51.146;16.986;2022-07-04T13:55:49;3.85;;;3.55;;
10442;SDS011;5269;51.146;16.986;2022-07-04T13:58:26;3.40;;;3.20;;
10442;SDS011;5269;51.146;16.986;2022-07-04T14:00:57;3.50;;;3.30;;
10442;SDS011;5269;51.146;16.986;2022-07-04T14:03:27;3.53;;;3.33;;
10442;SDS011;5269;51.146;16.986;2022-07-04T14:05:54;3.70;;;3.40;;
10442;SDS011;5269;51.146;16.986;2022-07-04T14:08:21;3.20;;;2.90;;
10442;SDS011;5269;51.146;16.986;2022-07-04T14:10:56;4.35;;;3.20;;
10442;SDS011;5269;51.146;16.986;2022-07-04T14:13:38;3.40;;;3.10;;
10442;SDS011;5269;51.146;16.986;2022-07-04T14:16:11;7.00;;;3.30;;
10442;SDS011;5269;51.146;16.986;2022-07-04T14:18:40;6.68;;;3.05;;
10442;SDS011;5269;51.146;16.986;2022-07-04T14:21:07;3.58;;;3.20;;
10442;SDS011;5269;51.146;16.986;2022-07-04T14:23:46;9.07;;;3.97;;
10442;SDS011;5269;51.146;16.986;2022-07-04T14:29:37;4.95;;;3.60;;
10442;SDS011;5269;51.146;16.986;2022-07-04T14:32:04;5.63;;;3.20;;
10442;SDS011;5269;51.146;16.986;2022-07-04T14:34:36;3.53;;;3.20;;
10442;SDS011;5269;51.146;16.986;2022-07-04T14:37:05;3.38;;;3.00;;
10442;SDS011;5269;51.146;16.986;2022-07-04T14:39:49;4.40;;;2.90;;
10442;SDS011;5269;51.146;16.986;2022-07-04T14:42:17;3.13;;;2.92;;
10442;SDS011;5269;51.146;16.986;2022-07-04T14:44:45;3.42;;;3.20;;
10442;SDS011;5269;51.146;16.986;2022-07-04T14:47:13;6.65;;;3.38;;
10442;SDS011;5269;51.146;16.986;2022-07-04T14:49:46;5.13;;;3.35;;
10442;SDS011;5269;51.146;16.986;2022-07-04T14:52:13;5.70;;;3.10;;
10442;SDS011;5269;51.146;16.986;2022-07-04T14:54:40;3.00;;;2.80;;
10442;SDS011;5269;51.146;16.986;2022-07-04T14:57:11;5.75;;;3.08;;
10442;SDS011;5269;51.146;16.986;2022-07-04T15:02:17;4.50;;;2.85;;
10442;SDS011;5269;51.146;16.986;2022-07-04T15:04:47;4.93;;;2.80;;
10442;SDS011;5269;51.146;16.986;2022-07-04T15:07:17;3.25;;;2.95;;
10442;SDS011;5269;51.146;16.986;2022-07-04T15:09:44;5.35;;;3.40;;
10442;SDS011;5269;51.146;16.986;2022-07-04T15:12:12;6.35;;;3.10;;
10442;SDS011;5269;51.146;16.986;2022-07-04T15:17:38;5.20;;;3.28;;
10442;SDS011;5269;51.146;16.986;2022-07-04T15:20:05;4.15;;;2.88;;
10442;SDS011;5269;51.146;16.986;2022-07-04T15:22:50;12.25;;;3.50;;
10442;SDS011;5269;51.146;16.986;2022-07-04T15:28:19;3.40;;;3.10;;
10442;SDS011;5269;51.146;16.986;2022-07-04T15:30:46;8.02;;;3.20;;
10442;SDS011;5269;51.146;16.986;2022-07-04T15:33:14;11.98;;;3.10;;
10442;SDS011;5269;51.146;16.986;2022-07-04T15:35:45;3.28;;;2.95;;
10442;SDS011;5269;51.146;16.986;2022-07-04T15:38:19;6.72;;;2.80;;
10442;SDS011;5269;51.146;16.986;2022-07-04T15:43:27;7.43;;;3.88;;
10442;SDS011;5269;51.146;16.986;2022-07-04T15:45:55;4.28;;;3.80;;
10442;SDS011;5269;51.146;16.986;2022-07-04T15:48:29;7.10;;;4.15;;
10442;SDS011;5269;51.146;16.986;2022-07-04T15:50:57;6.20;;;3.63;;
10442;SDS011;5269;51.146;16.986;2022-07-04T15:53:34;6.20;;;3.25;;
10442;SDS011;5269;51.146;16.986;2022-07-04T15:56:07;4.40;;;3.20;;
10442;SDS011;5269;51.146;16.986;2022-07-04T15:58:36;3.30;;;3.00;;
10442;SDS011;5269;51.146;16.986;2022-07-04T16:03:52;3.10;;;2.83;;
10442;SDS011;5269;51.146;16.986;2022-07-04T16:06:33;3.13;;;2.90;;
10442;SDS011;5269;51.146;16.986;2022-07-04T16:09:00;3.30;;;2.83;;
10442;SDS011;5269;51.146;16.986;2022-07-04T16:11:27;3.45;;;3.20;;
10442;SDS011;5269;51.146;16.986;2022-07-04T16:13:54;3.53;;;2.80;;
10442;SDS011;5269;51.146;16.986;2022-07-04T16:16:21;3.30;;;3.10;;
10442;SDS011;5269;51.146;16.986;2022-07-04T16:18:49;5.10;;;3.15;;
10442;SDS011;5269;51.146;16.986;2022-07-04T16:21:16;6.25;;;3.47;;
10442;SDS011;5269;51.146;16.986;2022-07-04T16:23:43;4.65;;;3.00;;
10442;SDS011;5269;51.146;16.986;2022-07-04T16:26:10;3.20;;;3.00;;
10442;SDS011;5269;51.146;16.986;2022-07-04T16:28:37;3.40;;;3.00;;
10442;SDS011;5269;51.146;16.986;2022-07-04T16:31:04;2.83;;;2.72;;
10442;SDS011;5269;51.146;16.986;2022-07-04T16:33:31;3.63;;;2.65;;
10442;SDS011;5269;51.146;16.986;2022-07-04T16:35:59;4.75;;;3.05;;
10442;SDS011;5269;51.146;16.986;2022-07-04T16:38:26;4.78;;;2.70;;
10442;SDS011;5269;51.146;16.986;2022-07-04T16:40:53;2.85;;;2.65;;
10442;SDS011;5269;51.146;16.986;2022-07-04T16:43:20;2.90;;;2.70;;
10442;SDS011;5269;51.146;16.986;2022-07-04T16:45:49;4.30;;;2.90;;
10442;SDS011;5269;51.146;16.986;2022-07-04T16:48:18;3.28;;;2.95;;
10442;SDS011;5269;51.146;16.986;2022-07-04T16:50:45;2.80;;;2.67;;
10442;SDS011;5269;51.146;16.986;2022-07-04T16:53:14;4.70;;;2.70;;
10442;SDS011;5269;51.146;16.986;2022-07-04T16:55:41;7.38;;;3.00;;
10442;SDS011;5269;51.146;16.986;2022-07-04T16:58:08;6.20;;;2.90;;
10442;SDS011;5269;51.146;16.986;2022-07-04T17:00:35;3.45;;;2.80;;
10442;SDS011;5269;51.146;16.986;2022-07-04T17:03:03;3.42;;;2.65;;
10442;SDS011;5269;51.146;16.986;2022-07-04T17:05:30;3.08;;;2.50;;
10442;SDS011;5269;51.146;16.986;2022-07-04T17:07:56;2.90;;;2.70;;
10442;SDS011;5269;51.146;16.986;2022-07-04T17:10:25;3.45;;;2.78;;
10442;SDS011;5269;51.146;16.986;2022-07-04T17:12:52;4.28;;;2.83;;
10442;SDS011;5269;51.146;16.986;2022-07-04T17:15:19;6.97;;;2.95;;
10442;SDS011;5269;51.146;16.986;2022-07-04T17:17:47;3.55;;;3.22;;
10442;SDS011;5269;51.146;16.986;2022-07-04T17:20:19;4.78;;;3.72;;
10442;SDS011;5269;51.146;16.986;2022-07-04T17:22:50;7.03;;;3.47;;
10442;SDS011;5269;51.146;16.986;2022-07-04T17:25:18;4.90;;;3.40;;
10442;SDS011;5269;51.146;16.986;2022-07-04T17:27:49;3.50;;;3.20;;
10442;SDS011;5269;51.146;16.986;2022-07-04T17:30:16;4.88;;;3.70;;